createdAt,value
2023-02-12T00:01:08.781Z,21.10
2023-02-12T00:03:35.836Z,21.67
2023-02-12T00:06:02.501Z,20.75
2023-02-12T00:08:29.444Z,20.67
2023-02-12T00:10:56.142Z,21.70
2023-02-12T00:13:22.698Z,22.83
2023-02-12T00:15:49.260Z,23.70
2023-02-12T00:18:15.969Z,24.30
2023-02-12T00:20:42.485Z,24.08
2023-02-12T00:23:10.516Z,20.25
2023-02-12T00:25:40.916Z,23.20
2023-02-12T00:28:07.473Z,22.65
2023-02-12T00:30:34.037Z,24.65
2023-02-12T00:33:00.679Z,25.45
2023-02-12T00:35:27.269Z,20.40
2023-02-12T00:37:53.869Z,23.37
2023-02-12T00:40:20.730Z,24.42
2023-02-12T00:42:47.252Z,20.90
2023-02-12T00:45:13.772Z,22.00
2023-02-12T00:47:40.294Z,21.35
2023-02-12T00:50:08.117Z,20.57
2023-02-12T00:52:35.163Z,30.05
2023-02-12T00:55:02.409Z,23.75
2023-02-12T00:57:28.943Z,22.80
2023-02-12T00:59:56.411Z,25.48
2023-02-12T01:02:23.559Z,21.80
2023-02-12T01:04:50.101Z,22.73
2023-02-12T01:07:16.613Z,23.98
2023-02-12T01:09:43.172Z,22.08
2023-02-12T01:12:09.716Z,22.55
2023-02-12T01:14:36.157Z,23.77
2023-02-12T01:17:03.552Z,22.40
2023-02-12T01:19:30.139Z,21.60
2023-02-12T01:21:56.638Z,20.48
2023-02-12T01:24:23.197Z,23.88
2023-02-12T01:26:50.544Z,23.03
2023-02-12T01:29:17.361Z,24.25
2023-02-12T01:31:44.000Z,21.98
2023-02-12T01:34:11.702Z,22.48
2023-02-12T01:36:38.951Z,20.85
2023-02-12T01:39:06.561Z,22.43
2023-02-12T01:41:39.563Z,23.13
2023-02-12T01:44:11.361Z,23.50
2023-02-12T01:46:38.692Z,21.20
2023-02-12T01:49:09.229Z,22.95
2023-02-12T01:51:36.550Z,22.47
2023-02-12T01:54:06.841Z,21.50
2023-02-12T01:56:33.722Z,22.55
2023-02-12T01:59:00.748Z,20.80
2023-02-12T02:01:30.724Z,26.45
2023-02-12T02:04:02.369Z,18.60
2023-02-12T02:06:34.878Z,20.35
2023-02-12T02:09:02.689Z,24.05
2023-02-12T02:11:47.869Z,26.48
2023-02-12T02:14:32.518Z,24.70
2023-02-12T02:17:04.581Z,22.33
2023-02-12T02:20:01.638Z,21.58
2023-02-12T02:22:40.927Z,21.98
2023-02-12T02:25:45.226Z,23.40
2023-02-12T02:28:11.724Z,21.40
2023-02-12T02:30:51.708Z,23.97
2023-02-12T02:33:29.946Z,22.30
2023-02-12T02:36:05.347Z,26.10
2023-02-12T02:38:41.830Z,24.65
2023-02-12T02:41:26.136Z,21.33
2023-02-12T02:43:53.297Z,22.70
2023-02-12T02:46:59.359Z,22.90
2023-02-12T02:49:33.790Z,21.15
2023-02-12T02:52:08.140Z,22.27
2023-02-12T02:54:39.914Z,25.38
2023-02-12T02:57:14.041Z,22.77
2023-02-12T02:59:46.458Z,20.85
2023-02-12T03:02:19.985Z,21.35
2023-02-12T03:04:52.660Z,22.60
2023-02-12T03:07:29.571Z,23.83
2023-02-12T03:10:16.346Z,23.20
2023-02-12T03:12:54.049Z,21.90
2023-02-12T03:15:46.148Z,23.05
2023-02-12T03:18:19.665Z,21.45
2023-02-12T03:20:53.050Z,24.50
2023-02-12T03:23:25.372Z,21.00
2023-02-12T03:26:05.910Z,24.05
2023-02-12T03:28:36.579Z,20.83
2023-02-12T03:31:18.229Z,20.55
2023-02-12T03:34:13.693Z,23.67
2023-02-12T03:36:55.973Z,24.13
2023-02-12T03:39:29.897Z,22.58
2023-02-12T03:42:09.056Z,23.90
2023-02-12T03:44:46.880Z,22.60
2023-02-12T03:47:39.520Z,21.60
2023-02-12T03:50:32.448Z,22.80
2023-02-12T03:52:58.984Z,20.65
2023-02-12T03:55:25.880Z,21.25
2023-02-12T03:58:00.964Z,22.27
2023-02-12T04:00:27.985Z,20.33
2023-02-12T04:02:55.073Z,22.57
2023-02-12T04:05:25.895Z,21.20
2023-02-12T04:07:54.850Z,21.70
2023-02-12T04:10:32.065Z,22.27
2023-02-12T04:13:25.264Z,24.98
2023-02-12T04:16:22.432Z,22.40
2023-02-12T04:18:52.347Z,21.52
2023-02-12T04:21:48.043Z,22.85
2023-02-12T04:24:53.002Z,21.10
2023-02-12T04:27:26.418Z,23.45
2023-02-12T04:30:00.445Z,21.10
2023-02-12T04:32:45.124Z,24.17
2023-02-12T04:35:25.436Z,24.60
2023-02-12T04:37:58.794Z,25.92
2023-02-12T04:40:25.835Z,23.75
2023-02-12T04:42:53.308Z,27.13
2023-02-12T04:45:27.436Z,22.17
2023-02-12T04:47:53.967Z,25.90
2023-02-12T04:50:21.110Z,26.00
2023-02-12T04:52:47.633Z,23.65
2023-02-12T04:55:14.390Z,21.57
2023-02-12T04:57:40.947Z,25.13
2023-02-12T05:00:09.078Z,27.58
2023-02-12T05:02:36.340Z,24.38
2023-02-12T05:05:02.881Z,22.55
2023-02-12T05:07:29.355Z,25.27
2023-02-12T05:09:55.854Z,24.23
2023-02-12T05:12:22.412Z,27.42
2023-02-12T05:14:48.937Z,26.65
2023-02-12T05:17:15.450Z,23.45
2023-02-12T05:19:41.939Z,27.17
2023-02-12T05:22:08.445Z,27.50
2023-02-12T05:24:34.956Z,28.17
2023-02-12T05:27:01.537Z,30.58
2023-02-12T05:29:28.030Z,30.50
2023-02-12T05:31:54.567Z,29.70
2023-02-12T05:34:21.114Z,32.85
2023-02-12T05:36:47.615Z,31.65
2023-02-12T05:39:14.147Z,34.38
2023-02-12T05:41:40.696Z,30.35
2023-02-12T05:44:07.133Z,31.67
2023-02-12T05:46:34.003Z,33.60
2023-02-12T05:49:00.574Z,37.53
2023-02-12T05:51:28.024Z,42.78
2023-02-12T05:54:03.762Z,40.15
2023-02-12T05:56:32.635Z,36.77
2023-02-12T05:59:05.697Z,36.25
2023-02-12T06:01:37.850Z,37.97
2023-02-12T06:04:06.645Z,38.50
2023-02-12T06:06:34.333Z,35.75
2023-02-12T06:09:01.349Z,36.60
2023-02-12T06:11:28.636Z,41.30
2023-02-12T06:13:55.196Z,37.30
2023-02-12T06:16:24.486Z,40.65
2023-02-12T06:18:51.946Z,40.03
2023-02-12T06:21:19.989Z,40.07
2023-02-12T06:23:47.244Z,37.13
2023-02-12T06:26:13.893Z,40.33
2023-02-12T06:28:40.445Z,35.10
2023-02-12T06:31:18.268Z,37.17
2023-02-12T06:33:44.909Z,43.47
2023-02-12T06:36:11.434Z,47.03
2023-02-12T06:38:37.978Z,42.45
2023-02-12T06:41:04.825Z,46.05
2023-02-12T06:43:31.472Z,45.03
2023-02-12T06:46:01.720Z,46.50
2023-02-12T06:48:28.558Z,47.15
2023-02-12T06:50:55.072Z,45.67
2023-02-12T06:53:21.686Z,54.30
2023-02-12T06:55:48.185Z,51.55
2023-02-12T06:58:14.652Z,52.23
2023-02-12T07:00:41.210Z,48.33
2023-02-12T07:03:07.745Z,48.20
2023-02-12T07:05:37.742Z,45.75
2023-02-12T07:08:04.291Z,49.72
2023-02-12T07:10:30.837Z,54.87
2023-02-12T07:12:57.472Z,50.08
2023-02-12T07:15:23.947Z,53.85
2023-02-12T07:17:50.626Z,53.58
2023-02-12T07:20:17.203Z,47.60
2023-02-12T07:22:43.864Z,45.83
2023-02-12T07:25:10.618Z,49.03
2023-02-12T07:27:38.143Z,61.03
2023-02-12T07:30:06.551Z,48.30
2023-02-12T07:32:34.484Z,54.30
2023-02-12T07:35:01.132Z,48.27
2023-02-12T07:37:27.744Z,56.75
2023-02-12T07:39:54.425Z,53.50
2023-02-12T07:42:21.214Z,55.72
2023-02-12T07:44:49.903Z,59.78
2023-02-12T07:47:16.930Z,59.73
2023-02-12T07:49:43.582Z,55.28
2023-02-12T07:52:12.206Z,52.25
2023-02-12T07:54:39.951Z,55.70
2023-02-12T07:57:06.463Z,56.30
2023-02-12T07:59:33.006Z,57.03
2023-02-12T08:02:00.966Z,50.25
2023-02-12T08:04:27.681Z,52.92
2023-02-12T08:06:55.714Z,50.85
2023-02-12T08:09:24.762Z,53.20
2023-02-12T08:11:51.734Z,55.60
2023-02-12T08:14:20.712Z,51.70
2023-02-12T08:16:49.330Z,53.50
2023-02-12T08:19:20.986Z,54.45
2023-02-12T08:21:50.765Z,53.40
2023-02-12T08:24:17.384Z,50.87
2023-02-12T08:26:44.441Z,50.88
2023-02-12T08:29:14.369Z,47.25
2023-02-12T08:31:47.453Z,52.35
2023-02-12T08:34:23.201Z,48.15
2023-02-12T08:36:51.847Z,49.57
2023-02-12T08:39:18.584Z,54.25
2023-02-12T08:41:46.172Z,55.83
2023-02-12T08:44:13.952Z,52.75
2023-02-12T08:46:46.652Z,51.00
2023-02-12T08:49:24.975Z,53.60
2023-02-12T08:51:54.324Z,50.53
2023-02-12T08:54:26.402Z,50.67
2023-02-12T08:57:01.150Z,51.80
2023-02-12T08:59:27.954Z,50.15
2023-02-12T09:01:55.112Z,47.60
2023-02-12T09:04:24.169Z,52.13
2023-02-12T09:06:51.799Z,47.95
2023-02-12T09:09:19.880Z,54.97
2023-02-12T09:11:47.105Z,47.72
2023-02-12T09:14:16.717Z,46.63
2023-02-12T09:16:43.469Z,45.15
2023-02-12T09:19:13.168Z,47.25
2023-02-12T09:21:39.789Z,46.45
2023-02-12T09:24:06.394Z,44.45
2023-02-12T09:26:32.957Z,45.77
2023-02-12T09:29:02.155Z,46.38
2023-02-12T09:31:30.558Z,43.83
2023-02-12T09:34:02.706Z,45.53
2023-02-12T09:36:30.041Z,42.60
2023-02-12T09:38:59.136Z,40.23
2023-02-12T09:42:03.370Z,42.78
2023-02-12T09:44:57.773Z,40.85
2023-02-12T09:47:31.175Z,40.30
2023-02-12T09:50:44.100Z,37.58
2023-02-12T09:53:14.921Z,41.03
2023-02-12T09:55:41.466Z,35.83
2023-02-12T09:58:15.740Z,37.90
2023-02-12T10:00:42.346Z,37.25
2023-02-12T10:03:17.242Z,34.90
2023-02-12T10:05:55.397Z,32.73
2023-02-12T10:08:56.001Z,30.95
2023-02-12T10:11:38.720Z,33.22
2023-02-12T10:14:37.258Z,31.65
2023-02-12T10:17:25.256Z,31.75
2023-02-12T10:20:32.286Z,29.53
2023-02-12T10:23:16.864Z,30.70
2023-02-12T10:25:56.809Z,30.35
2023-02-12T10:28:28.609Z,31.33
2023-02-12T10:31:00.210Z,27.27
2023-02-12T10:33:31.782Z,28.60
2023-02-12T10:36:05.074Z,30.90
2023-02-12T10:38:36.408Z,26.15
2023-02-12T10:41:03.033Z,32.92
2023-02-12T10:43:30.321Z,24.38
2023-02-12T10:45:57.343Z,28.50
2023-02-12T10:48:33.094Z,24.10
2023-02-12T10:51:08.607Z,24.75
2023-02-12T10:53:41.544Z,18.98
2023-02-12T10:56:12.103Z,18.02
2023-02-12T10:58:50.531Z,15.27
2023-02-12T11:01:19.798Z,26.20
2023-02-12T11:03:46.295Z,26.40
2023-02-12T11:06:35.238Z,27.02
2023-02-12T11:09:02.953Z,25.02
2023-02-12T11:11:31.564Z,24.80
2023-02-12T11:14:16.329Z,26.90
2023-02-12T11:16:58.669Z,20.83
2023-02-12T11:19:27.794Z,25.10
2023-02-12T11:22:10.192Z,23.23
2023-02-12T11:24:37.810Z,17.60
2023-02-12T11:27:21.466Z,17.17
2023-02-12T11:30:10.394Z,16.98
2023-02-12T11:32:37.542Z,20.52
2023-02-12T11:35:15.331Z,19.55
2023-02-12T11:37:44.676Z,21.00
2023-02-12T11:40:19.129Z,22.67
2023-02-12T11:42:50.563Z,19.98
2023-02-12T11:45:22.621Z,21.75
2023-02-12T11:47:50.694Z,22.63
2023-02-12T11:50:32.841Z,20.27
2023-02-12T11:53:04.590Z,24.45
2023-02-12T11:55:34.918Z,21.77
2023-02-12T11:58:12.415Z,24.15
2023-02-12T12:00:54.364Z,21.77
2023-02-12T12:03:51.739Z,23.57
2023-02-12T12:06:31.214Z,18.55
2023-02-12T12:09:12.865Z,22.85
2023-02-12T12:12:13.792Z,18.08
2023-02-12T12:15:06.743Z,19.45
2023-02-12T12:18:16.875Z,18.87
2023-02-12T12:20:58.133Z,18.23
2023-02-12T12:23:45.809Z,19.40
2023-02-12T12:26:34.430Z,20.73
2023-02-12T12:29:06.620Z,17.63
2023-02-12T12:31:37.980Z,17.93
2023-02-12T12:34:14.417Z,14.60
2023-02-12T12:36:59.641Z,17.42
2023-02-12T12:39:28.935Z,17.38
2023-02-12T12:42:33.278Z,18.83
2023-02-12T12:45:33.897Z,18.90
2023-02-12T12:48:17.194Z,18.17
2023-02-12T12:51:22.640Z,19.05
2023-02-12T12:54:21.838Z,19.33
2023-02-12T12:57:03.622Z,18.80
2023-02-12T12:59:51.677Z,22.60
2023-02-12T13:02:27.483Z,29.90
2023-02-12T13:05:22.100Z,24.58
2023-02-12T13:08:06.719Z,25.58
2023-02-12T13:10:49.673Z,27.52
2023-02-12T13:13:26.347Z,25.50
2023-02-12T13:16:30.226Z,24.30
2023-02-12T13:19:21.415Z,24.42
2023-02-12T13:22:05.070Z,24.40
2023-02-12T13:24:49.997Z,28.25
2023-02-12T13:27:22.892Z,25.87
2023-02-12T13:29:53.653Z,26.92
2023-02-12T13:32:25.999Z,26.95
2023-02-12T13:34:54.812Z,25.55
2023-02-12T13:37:35.333Z,25.35
2023-02-12T13:40:06.475Z,25.97
2023-02-12T13:42:40.189Z,24.90
2023-02-12T13:45:19.159Z,22.13
2023-02-12T13:48:20.445Z,24.17
2023-02-12T13:51:01.474Z,22.98
2023-02-12T13:53:57.710Z,24.57
2023-02-12T13:56:29.318Z,22.05
2023-02-12T13:58:56.345Z,24.60
2023-02-12T14:01:45.834Z,20.35
2023-02-12T14:04:26.320Z,23.23
2023-02-12T14:07:01.929Z,21.70
2023-02-12T14:09:38.131Z,22.90
2023-02-12T14:12:08.899Z,20.55
2023-02-12T14:14:42.935Z,23.67
2023-02-12T14:17:28.304Z,20.63
2023-02-12T14:19:56.113Z,19.47
2023-02-12T14:22:42.467Z,22.05
2023-02-12T14:25:15.147Z,20.33
2023-02-12T14:27:53.595Z,21.23
2023-02-12T14:30:33.398Z,22.50
2023-02-12T14:33:22.092Z,22.93
2023-02-12T14:36:09.966Z,19.90
2023-02-12T14:38:47.143Z,20.10
2023-02-12T14:41:43.110Z,22.00
2023-02-12T14:44:23.163Z,22.42
2023-02-12T14:46:52.711Z,23.43
2023-02-12T14:49:19.249Z,20.23
2023-02-12T14:51:54.739Z,22.83
2023-02-12T14:54:43.103Z,22.67
2023-02-12T14:57:27.154Z,23.73
2023-02-12T15:00:16.978Z,21.60
2023-02-12T15:02:54.425Z,20.80
2023-02-12T15:05:23.505Z,20.27
2023-02-12T15:07:58.392Z,20.15
2023-02-12T15:10:31.908Z,20.23
2023-02-12T15:13:18.317Z,23.23
2023-02-12T15:15:53.049Z,18.63
2023-02-12T15:18:42.359Z,21.48
2023-02-12T15:21:29.135Z,20.85
2023-02-12T15:24:03.622Z,21.08
2023-02-12T15:26:33.870Z,21.70
2023-02-12T15:29:01.490Z,20.73
2023-02-12T15:31:30.511Z,20.00
2023-02-12T15:33:59.331Z,22.27
2023-02-12T15:36:29.356Z,19.67
2023-02-12T15:39:06.338Z,19.77
2023-02-12T15:41:32.801Z,21.23
2023-02-12T15:44:18.884Z,20.88
2023-02-12T15:47:12.386Z,21.50
2023-02-12T15:49:40.812Z,20.77
2023-02-12T15:52:18.105Z,21.30
2023-02-12T15:54:48.582Z,23.40
2023-02-12T15:57:22.298Z,23.52
2023-02-12T15:59:53.489Z,21.33
2023-02-12T16:02:24.981Z,20.35
2023-02-12T16:04:51.434Z,22.27
2023-02-12T16:07:19.302Z,22.15
2023-02-12T16:09:46.897Z,23.88
2023-02-12T16:12:18.275Z,25.73
2023-02-12T16:14:52.638Z,24.42
2023-02-12T16:17:25.145Z,26.03
2023-02-12T16:19:59.153Z,24.60
2023-02-12T16:22:32.780Z,23.92
2023-02-12T16:25:00.382Z,25.70
2023-02-12T16:27:32.286Z,24.65
2023-02-12T16:30:31.944Z,22.93
2023-02-12T16:32:59.922Z,23.38
2023-02-12T16:35:31.053Z,24.20
2023-02-12T16:38:01.267Z,24.70
2023-02-12T16:40:34.111Z,24.30
2023-02-12T16:43:04.121Z,25.03
2023-02-12T16:45:36.928Z,23.05
2023-02-12T16:48:09.266Z,25.80
2023-02-12T16:50:39.421Z,25.45
2023-02-12T16:53:22.904Z,22.38
2023-02-12T16:55:49.844Z,24.27
2023-02-12T16:58:16.449Z,23.98
2023-02-12T17:00:42.973Z,23.45
2023-02-12T17:03:14.159Z,25.52
2023-02-12T17:05:42.697Z,24.35
2023-02-12T17:08:17.459Z,26.57
2023-02-12T17:10:48.197Z,22.95
2023-02-12T17:13:16.113Z,23.55
2023-02-12T17:15:52.650Z,25.42
2023-02-12T17:18:20.130Z,25.38
2023-02-12T17:20:52.835Z,22.50
2023-02-12T17:23:19.656Z,25.02
2023-02-12T17:25:46.146Z,25.38
2023-02-12T17:28:12.700Z,29.13
2023-02-12T17:30:39.363Z,29.10
2023-02-12T17:33:05.826Z,26.20
2023-02-12T17:35:32.399Z,28.20
2023-02-12T17:37:58.939Z,24.88
2023-02-12T17:40:25.586Z,23.88
2023-02-12T17:42:52.106Z,27.33
2023-02-12T17:45:19.110Z,26.83
2023-02-12T17:47:45.687Z,25.15
2023-02-12T17:50:15.557Z,26.02
2023-02-12T17:52:42.817Z,26.42
2023-02-12T17:55:11.490Z,27.88
2023-02-12T17:57:38.120Z,24.93
2023-02-12T18:00:06.454Z,27.95
2023-02-12T18:02:37.319Z,26.45
2023-02-12T18:05:04.277Z,25.75
2023-02-12T18:07:33.833Z,28.85
2023-02-12T18:10:00.300Z,25.83
2023-02-12T18:12:26.867Z,27.42
2023-02-12T18:14:58.438Z,27.02
2023-02-12T18:17:25.199Z,31.65
2023-02-12T18:19:52.469Z,29.25
2023-02-12T18:22:19.067Z,34.07
2023-02-12T18:24:45.575Z,37.13
2023-02-12T18:27:13.330Z,27.13
2023-02-12T18:29:40.245Z,25.60
2023-02-12T18:32:07.326Z,24.33
2023-02-12T18:34:34.104Z,25.93
2023-02-12T18:37:00.757Z,26.25
2023-02-12T18:39:27.300Z,27.67
2023-02-12T18:41:53.866Z,27.92
2023-02-12T18:44:20.404Z,29.80
2023-02-12T18:46:46.886Z,26.07
2023-02-12T18:49:14.904Z,25.13
2023-02-12T18:51:41.462Z,28.65
2023-02-12T18:54:11.929Z,22.83
2023-02-12T18:56:43.605Z,26.83
2023-02-12T18:59:13.692Z,31.07
2023-02-12T19:01:40.355Z,24.88
2023-02-12T19:04:09.500Z,26.40
2023-02-12T19:06:45.504Z,29.23
2023-02-12T19:09:16.416Z,29.70
2023-02-12T19:11:46.603Z,25.30
2023-02-12T19:14:17.217Z,32.60
2023-02-12T19:16:44.932Z,35.92
2023-02-12T19:19:12.300Z,31.67
2023-02-12T19:21:39.629Z,27.17
2023-02-12T19:24:06.449Z,33.37
2023-02-12T19:26:36.043Z,29.35
2023-02-12T19:29:04.093Z,31.95
2023-02-12T19:31:34.150Z,34.97
2023-02-12T19:34:03.911Z,34.72
2023-02-12T19:36:32.858Z,29.80
2023-02-12T19:38:59.607Z,28.90
2023-02-12T19:41:27.998Z,29.92
2023-02-12T19:43:56.125Z,31.30
2023-02-12T19:46:22.705Z,30.35
2023-02-12T19:48:49.388Z,32.60
2023-02-12T19:51:18.615Z,28.95
2023-02-12T19:53:46.355Z,27.75
2023-02-12T19:56:13.990Z,30.60
2023-02-12T19:58:40.814Z,27.08
2023-02-12T20:01:13.112Z,29.53
2023-02-12T20:03:40.200Z,28.77
2023-02-12T20:06:13.764Z,26.35
2023-02-12T20:08:41.955Z,27.48
2023-02-12T20:11:13.902Z,26.85
2023-02-12T20:13:40.862Z,27.20
2023-02-12T20:16:10.765Z,29.08
2023-02-12T20:18:38.188Z,24.80
2023-02-12T20:21:13.443Z,26.10
2023-02-12T20:23:40.061Z,23.08
2023-02-12T20:26:08.097Z,26.73
2023-02-12T20:28:36.052Z,24.42
2023-02-12T20:31:30.917Z,24.67
2023-02-12T20:34:00.231Z,25.45
2023-02-12T20:36:29.459Z,25.77
2023-02-12T20:38:56.805Z,26.53
2023-02-12T20:41:24.758Z,28.15
2023-02-12T20:43:51.548Z,27.48
2023-02-12T20:46:21.145Z,28.42
2023-02-12T20:48:48.505Z,24.33
2023-02-12T20:51:19.042Z,22.60
2023-02-12T20:53:46.560Z,27.35
2023-02-12T20:56:18.036Z,25.70
2023-02-12T20:58:45.885Z,27.55
2023-02-12T21:01:17.035Z,25.42
2023-02-12T21:03:44.393Z,27.77
2023-02-12T21:06:11.158Z,27.08
2023-02-12T21:08:39.437Z,33.20
2023-02-12T21:11:17.234Z,33.42
2023-02-12T21:13:58.559Z,33.10
2023-02-12T21:16:41.118Z,31.63
2023-02-12T21:19:08.757Z,35.13
2023-02-12T21:21:38.035Z,29.70
2023-02-12T21:24:08.565Z,30.92
2023-02-12T21:26:36.038Z,32.97
2023-02-12T21:29:03.992Z,35.50
2023-02-12T21:31:39.512Z,28.85
2023-02-12T21:34:07.503Z,31.75
2023-02-12T21:36:37.544Z,27.73
2023-02-12T21:39:08.872Z,30.58
2023-02-12T21:41:38.127Z,31.43
2023-02-12T21:44:07.492Z,27.40
2023-02-12T21:46:35.308Z,29.90
2023-02-12T21:49:02.269Z,32.30
2023-02-12T21:51:34.492Z,29.40
2023-02-12T21:54:03.779Z,28.10
2023-02-12T21:56:30.528Z,26.65
2023-02-12T21:58:59.097Z,30.23
2023-02-12T22:01:28.488Z,27.20
2023-02-12T22:03:55.571Z,29.42
2023-02-12T22:06:24.659Z,28.20
2023-02-12T22:08:55.538Z,28.30
2023-02-12T22:11:23.392Z,26.27
2023-02-12T22:13:50.190Z,29.00
2023-02-12T22:16:19.603Z,28.23
2023-02-12T22:18:47.435Z,27.90
2023-02-12T22:21:15.845Z,34.42
2023-02-12T22:23:43.567Z,26.83
2023-02-12T22:26:15.532Z,26.25
2023-02-12T22:28:44.194Z,28.48
2023-02-12T22:31:12.666Z,30.07
2023-02-12T22:33:39.285Z,24.80
2023-02-12T22:36:08.518Z,25.15
2023-02-12T22:38:36.223Z,27.63
2023-02-12T22:41:03.269Z,26.42
2023-02-12T22:43:30.954Z,27.53
2023-02-12T22:45:58.441Z,27.00
2023-02-12T22:48:28.114Z,27.35
2023-02-12T22:50:56.025Z,28.38
2023-02-12T22:53:23.834Z,29.10
2023-02-12T22:55:50.565Z,25.60
2023-02-12T22:58:17.184Z,26.20
2023-02-12T23:00:43.917Z,23.52
2023-02-12T23:03:11.008Z,27.08
2023-02-12T23:05:38.796Z,29.33
2023-02-12T23:08:06.177Z,27.80
2023-02-12T23:10:33.030Z,28.48
2023-02-12T23:12:59.573Z,27.58
2023-02-12T23:15:26.143Z,25.48
2023-02-12T23:17:52.618Z,25.98
2023-02-12T23:20:19.346Z,26.30
2023-02-12T23:22:46.006Z,28.00
2023-02-12T23:25:12.775Z,29.90
2023-02-12T23:27:39.359Z,24.33
2023-02-12T23:30:06.435Z,29.45
2023-02-12T23:32:32.978Z,30.10
2023-02-12T23:34:59.477Z,27.35
2023-02-12T23:37:25.959Z,26.30
2023-02-12T23:39:52.426Z,22.83
2023-02-12T23:42:19.064Z,27.58
2023-02-12T23:44:45.510Z,27.47
2023-02-12T23:47:12.013Z,27.92
2023-02-12T23:49:38.789Z,26.98
2023-02-12T23:52:05.288Z,28.45
2023-02-12T23:54:31.844Z,27.33
2023-02-12T23:56:58.336Z,27.53
2023-02-12T23:59:25.673Z,28.63
